sensor_id;sensor_type;location;lat;lon;timestamp;pressure;altitude;pressure_sealevel;temperature;humidity
1207;BME280;593;53.184;8.216;2023-11-18T00:01:32;102032.31;;;5.53;100.00
1207;BME280;593;53.184;8.216;2023-11-18T00:04:00;102026.53;;;5.50;100.00
1207;BME280;593;53.184;8.216;2023-11-18T00:06:25;102035.44;;;5.50;100.00
1207;BME280;593;53.184;8.216;2023-11-18T00:08:51;102033.19;;;5.47;100.00
1207;BME280;593;53.184;8.216;2023-11-18T00:11:16;102034.22;;;5.46;100.00
1207;BME280;593;53.184;8.216;2023-11-18T00:13:41;102041.69;;;5.44;100.00
1207;BME280;593;53.184;8.216;2023-11-18T00:16:10;102038.38;;;5.42;100.00
1207;BME280;593;53.184;8.216;2023-11-18T00:18:41;102046.91;;;5.39;100.00
1207;BME280;593;53.184;8.216;2023-11-18T00:21:07;102042.56;;;5.38;100.00
1207;BME280;593;53.184;8.216;2023-11-18T00:23:33;102049.00;;;5.37;100.00
1207;BME280;593;53.184;8.216;2023-11-18T00:25:59;102035.34;;;5.26;100.00
1207;BME280;593;53.184;8.216;2023-11-18T00:28:24;102047.13;;;5.38;100.00
1207;BME280;593;53.184;8.216;2023-11-18T00:30:49;102033.50;;;5.19;100.00
1207;BME280;593;53.184;8.216;2023-11-18T00:33:15;102058.34;;;5.35;100.00
1207;BME280;593;53.184;8.216;2023-11-18T00:35:40;102039.69;;;5.33;100.00
1207;BME280;593;53.184;8.216;2023-11-18T00:38:06;102047.97;;;5.32;100.00
1207;BME280;593;53.184;8.216;2023-11-18T00:40:31;102050.66;;;5.32;100.00
1207;BME280;593;53.184;8.216;2023-11-18T00:42:57;102049.84;;;5.31;100.00
1207;BME280;593;53.184;8.216;2023-11-18T00:45:22;102046.34;;;5.31;100.00
1207;BME280;593;53.184;8.216;2023-11-18T00:47:48;102050.66;;;5.32;100.00
1207;BME280;593;53.184;8.216;2023-11-18T00:50:14;102049.66;;;5.26;100.00
1207;BME280;593;53.184;8.216;2023-11-18T00:52:39;102057.94;;;5.31;100.00
1207;BME280;593;53.184;8.216;2023-11-18T00:55:07;102058.34;;;5.35;100.00
1207;BME280;593;53.184;8.216;2023-11-18T00:57:34;102060.63;;;5.38;100.00
1207;BME280;593;53.184;8.216;2023-11-18T00:59:59;102050.44;;;5.40;100.00
1207;BME280;593;53.184;8.216;2023-11-18T01:02:24;102060.81;;;5.43;100.00
1207;BME280;593;53.184;8.216;2023-11-18T01:04:50;102056.25;;;5.43;100.00
1207;BME280;593;53.184;8.216;2023-11-18T01:07:15;102064.53;;;5.48;100.00
1207;BME280;593;53.184;8.216;2023-11-18T01:09:41;102053.94;;;5.47;100.00
1207;BME280;593;53.184;8.216;2023-11-18T01:12:07;102062.00;;;5.53;100.00
1207;BME280;593;53.184;8.216;2023-11-18T01:14:38;102057.41;;;5.54;100.00
1207;BME280;593;53.184;8.216;2023-11-18T01:17:08;102063.84;;;5.59;100.00
1207;BME280;593;53.184;8.216;2023-11-18T01:19:34;102061.97;;;5.60;100.00
1207;BME280;593;53.184;8.216;2023-11-18T01:22:00;102059.69;;;5.63;100.00
1207;BME280;593;53.184;8.216;2023-11-18T01:24:25;102054.06;;;5.65;100.00
1207;BME280;593;53.184;8.216;2023-11-18T01:26:51;102058.19;;;5.67;100.00
1207;BME280;593;53.184;8.216;2023-11-18T01:29:16;102065.88;;;5.70;100.00
1207;BME280;593;53.184;8.216;2023-11-18T01:31:42;102061.06;;;5.72;100.00
1207;BME280;593;53.184;8.216;2023-11-18T01:34:08;102061.69;;;5.74;100.00
1207;BME280;593;53.184;8.216;2023-11-18T01:36:33;102053.16;;;5.77;100.00
1207;BME280;593;53.184;8.216;2023-11-18T01:38:59;102054.00;;;5.78;100.00
1207;BME280;593;53.184;8.216;2023-11-18T01:41:25;102060.00;;;5.80;100.00
1207;BME280;593;53.184;8.216;2023-11-18T01:43:51;102060.59;;;5.82;100.00
1207;BME280;593;53.184;8.216;2023-11-18T01:46:17;102075.38;;;5.86;100.00
1207;BME280;593;53.184;8.216;2023-11-18T01:48:43;102070.34;;;5.90;100.00
1207;BME280;593;53.184;8.216;2023-11-18T01:51:09;102070.75;;;5.93;100.00
1207;BME280;593;53.184;8.216;2023-11-18T01:53:38;102069.25;;;5.97;100.00
1207;BME280;593;53.184;8.216;2023-11-18T01:56:05;102064.69;;;5.98;100.00
1207;BME280;593;53.184;8.216;2023-11-18T01:58:32;102067.63;;;5.96;100.00
1207;BME280;593;53.184;8.216;2023-11-18T02:00:58;102058.09;;;5.94;100.00
1207;BME280;593;53.184;8.216;2023-11-18T02:03:23;102063.44;;;6.00;100.00
1207;BME280;593;53.184;8.216;2023-11-18T02:05:51;102060.31;;;6.03;100.00
1207;BME280;593;53.184;8.216;2023-11-18T02:08:17;102046.56;;;6.05;100.00
1207;BME280;593;53.184;8.216;2023-11-18T02:10:57;102048.91;;;6.01;100.00
1207;BME280;593;53.184;8.216;2023-11-18T02:13:33;102052.81;;;6.05;100.00
1207;BME280;593;53.184;8.216;2023-11-18T02:16:02;102051.53;;;6.08;100.00
1207;BME280;593;53.184;8.216;2023-11-18T02:18:29;102050.28;;;6.10;100.00
1207;BME280;593;53.184;8.216;2023-11-18T02:20:56;102043.81;;;6.11;100.00
1207;BME280;593;53.184;8.216;2023-11-18T02:23:25;102047.75;;;6.15;100.00
1207;BME280;593;53.184;8.216;2023-11-18T02:25:54;102049.19;;;6.18;100.00
1207;BME280;593;53.184;8.216;2023-11-18T02:28:23;102051.06;;;6.17;100.00
1207;BME280;593;53.184;8.216;2023-11-18T02:30:50;102048.97;;;6.19;100.00
1207;BME280;593;53.184;8.216;2023-11-18T02:35:58;102051.81;;;6.24;100.00
1207;BME280;593;53.184;8.216;2023-11-18T02:38:30;102051.00;;;6.24;100.00
1207;BME280;593;53.184;8.216;2023-11-18T02:41:04;102049.97;;;6.25;100.00
1207;BME280;593;53.184;8.216;2023-11-18T02:43:35;102047.03;;;6.26;100.00
1207;BME280;593;53.184;8.216;2023-11-18T02:46:07;102044.13;;;6.28;100.00
1207;BME280;593;53.184;8.216;2023-11-18T02:48:33;102043.72;;;6.24;100.00
1207;BME280;593;53.184;8.216;2023-11-18T02:50:59;102038.31;;;6.24;100.00
1207;BME280;593;53.184;8.216;2023-11-18T02:53:25;102046.81;;;6.28;100.00
1207;BME280;593;53.184;8.216;2023-11-18T02:55:51;102042.63;;;6.32;100.00
1207;BME280;593;53.184;8.216;2023-11-18T02:58:22;102035.59;;;6.31;100.00
1207;BME280;593;53.184;8.216;2023-11-18T03:00:47;102036.19;;;6.33;100.00
1207;BME280;593;53.184;8.216;2023-11-18T03:03:13;102039.47;;;6.35;100.00
1207;BME280;593;53.184;8.216;2023-11-18T03:05:39;102044.88;;;6.35;100.00
1207;BME280;593;53.184;8.216;2023-11-18T03:08:04;102052.75;;;6.36;100.00
1207;BME280;593;53.184;8.216;2023-11-18T03:10:34;102045.28;;;6.38;100.00
1207;BME280;593;53.184;8.216;2023-11-18T03:13:00;102041.75;;;6.38;100.00
1207;BME280;593;53.184;8.216;2023-11-18T03:15:26;102029.94;;;6.32;100.00
1207;BME280;593;53.184;8.216;2023-11-18T03:17:52;102032.22;;;6.35;100.00
1207;BME280;593;53.184;8.216;2023-11-18T03:20:22;102041.16;;;6.36;100.00
1207;BME280;593;53.184;8.216;2023-11-18T03:22:49;102043.03;;;6.35;100.00
1207;BME280;593;53.184;8.216;2023-11-18T03:25:15;102037.38;;;6.37;100.00
1207;BME280;593;53.184;8.216;2023-11-18T03:27:41;102027.84;;;6.34;100.00
1207;BME280;593;53.184;8.216;2023-11-18T03:30:08;102037.19;;;6.38;100.00
1207;BME280;593;53.184;8.216;2023-11-18T03:32:35;102037.19;;;6.38;100.00
1207;BME280;593;53.184;8.216;2023-11-18T03:35:02;102039.66;;;6.40;100.00
1207;BME280;593;53.184;8.216;2023-11-18T03:37:27;102037.78;;;6.40;100.00
1207;BME280;593;53.184;8.216;2023-11-18T03:39:53;102028.59;;;6.41;100.00
1207;BME280;593;53.184;8.216;2023-11-18T03:42:18;102019.91;;;6.39;100.00
1207;BME280;593;53.184;8.216;2023-11-18T03:44:44;102034.84;;;6.42;100.00
1207;BME280;593;53.184;8.216;2023-11-18T03:47:15;102032.38;;;6.40;100.00
1207;BME280;593;53.184;8.216;2023-11-18T03:49:41;102034.66;;;6.43;100.00
1207;BME280;593;53.184;8.216;2023-11-18T03:52:06;102040.06;;;6.43;100.00
1207;BME280;593;53.184;8.216;2023-11-18T03:54:32;102030.66;;;6.46;100.00
1207;BME280;593;53.184;8.216;2023-11-18T03:56:57;102027.75;;;6.47;100.00
1207;BME280;593;53.184;8.216;2023-11-18T03:59:24;102030.44;;;6.47;100.00
1207;BME280;593;53.184;8.216;2023-11-18T04:01:50;102028.56;;;6.48;100.00
1207;BME280;593;53.184;8.216;2023-11-18T04:04:16;102024.81;;;6.49;100.00
1207;BME280;593;53.184;8.216;2023-11-18T04:06:42;102009.41;;;6.50;100.00
1207;BME280;593;53.184;8.216;2023-11-18T04:09:07;102010.84;;;6.52;100.00
1207;BME280;593;53.184;8.216;2023-11-18T04:11:34;102003.81;;;6.51;100.00
1207;BME280;593;53.184;8.216;2023-11-18T04:14:00;102009.22;;;6.51;100.00
1207;BME280;593;53.184;8.216;2023-11-18T04:16:25;102010.66;;;6.54;100.00
1207;BME280;593;53.184;8.216;2023-11-18T04:18:51;102006.88;;;6.55;100.00
1207;BME280;593;53.184;8.216;2023-11-18T04:21:16;102011.25;;;6.56;100.00
1207;BME280;593;53.184;8.216;2023-11-18T04:23:42;102001.91;;;6.52;100.00
1207;BME280;593;53.184;8.216;2023-11-18T04:26:08;102004.16;;;6.55;100.00
1207;BME280;593;53.184;8.216;2023-11-18T04:28:34;102002.31;;;6.55;100.00
1207;BME280;593;53.184;8.216;2023-11-18T04:31:01;102003.34;;;6.54;100.00
1207;BME280;593;53.184;8.216;2023-11-18T04:33:27;102003.34;;;6.54;100.00
1207;BME280;593;53.184;8.216;2023-11-18T04:35:55;102004.78;;;6.57;100.00
1207;BME280;593;53.184;8.216;2023-11-18T04:38:22;101989.81;;;6.54;100.00
1207;BME280;593;53.184;8.216;2023-11-18T04:40:48;101987.75;;;6.56;100.00
1207;BME280;593;53.184;8.216;2023-11-18T04:43:13;101988.56;;;6.57;100.00
1207;BME280;593;53.184;8.216;2023-11-18T04:45:38;101998.56;;;6.56;100.00
1207;BME280;593;53.184;8.216;2023-11-18T04:48:07;101989.81;;;6.54;100.00
1207;BME280;593;53.184;8.216;2023-11-18T04:50:32;101990.66;;;6.55;100.00
1207;BME280;593;53.184;8.216;2023-11-18T04:52:58;101989.03;;;6.54;100.00
1207;BME280;593;53.184;8.216;2023-11-18T04:55:24;101966.41;;;6.48;100.00
1207;BME280;593;53.184;8.216;2023-11-18T04:57:51;101978.22;;;6.54;100.00
1207;BME280;593;53.184;8.216;2023-11-18T05:00:17;101977.38;;;6.53;100.00
1207;BME280;593;53.184;8.216;2023-11-18T05:02:45;101981.97;;;6.53;100.00
1207;BME280;593;53.184;8.216;2023-11-18T05:05:13;101971.81;;;6.48;100.00
1207;BME280;593;53.184;8.216;2023-11-18T05:07:40;101956.63;;;6.47;100.00
1207;BME280;593;53.184;8.216;2023-11-18T05:10:06;101969.47;;;6.52;100.00
1207;BME280;593;53.184;8.216;2023-11-18T05:12:33;101963.28;;;6.51;100.00
1207;BME280;593;53.184;8.216;2023-11-18T05:14:59;101962.19;;;6.52;100.00
1207;BME280;593;53.184;8.216;2023-11-18T05:17:26;101961.38;;;6.52;100.00
1207;BME280;593;53.184;8.216;2023-11-18T05:19:52;101960.34;;;6.53;100.00
1207;BME280;593;53.184;8.216;2023-11-18T05:22:19;101950.41;;;6.46;100.00
1207;BME280;593;53.184;8.216;2023-11-18T05:24:46;101953.06;;;6.53;100.00
1207;BME280;593;53.184;8.216;2023-11-18T05:27:11;101953.25;;;6.52;100.00
1207;BME280;593;53.184;8.216;2023-11-18T05:29:36;101943.53;;;6.51;100.00
1207;BME280;593;53.184;8.216;2023-11-18T05:32:02;101941.50;;;6.46;100.00
1207;BME280;593;53.184;8.216;2023-11-18T05:34:28;101951.63;;;6.51;100.00
1207;BME280;593;53.184;8.216;2023-11-18T05:36:53;101947.06;;;6.51;100.00
1207;BME280;593;53.184;8.216;2023-11-18T05:39:23;101950.78;;;6.50;100.00
1207;BME280;593;53.184;8.216;2023-11-18T05:41:49;101950.19;;;6.48;100.00
1207;BME280;593;53.184;8.216;2023-11-18T05:44:16;101953.72;;;6.49;100.00
1207;BME280;593;53.184;8.216;2023-11-18T05:46:46;101955.38;;;6.50;100.00
1207;BME280;593;53.184;8.216;2023-11-18T05:49:12;101954.53;;;6.49;100.00
1207;BME280;593;53.184;8.216;2023-11-18T05:51:39;101962.03;;;6.47;100.00
1207;BME280;593;53.184;8.216;2023-11-18T05:54:06;101965.59;;;6.47;100.00
1207;BME280;593;53.184;8.216;2023-11-18T05:56:32;101968.28;;;6.47;100.00
1207;BME280;593;53.184;8.216;2023-11-18T05:58:57;101958.31;;;6.48;100.00
1207;BME280;593;53.184;8.216;2023-11-18T06:01:23;101952.06;;;6.47;100.00
1207;BME280;593;53.184;8.216;2023-11-18T06:03:49;101949.59;;;6.46;100.00
1207;BME280;593;53.184;8.216;2023-11-18T06:06:15;101957.47;;;6.47;100.00
1207;BME280;593;53.184;8.216;2023-11-18T06:08:42;101959.13;;;6.49;100.00
1207;BME280;593;53.184;8.216;2023-11-18T06:11:11;101955.81;;;6.46;100.00
1207;BME280;593;53.184;8.216;2023-11-18T06:13:48;101957.47;;;6.47;100.00
1207;BME280;593;53.184;8.216;2023-11-18T06:16:18;101965.81;;;6.46;100.00
1207;BME280;593;53.184;8.216;2023-11-18T06:18:48;101955.81;;;6.46;100.00
1207;BME280;593;53.184;8.216;2023-11-18T06:21:20;101960.41;;;6.46;100.00
1207;BME280;593;53.184;8.216;2023-11-18T06:23:49;101957.31;;;6.42;100.00
1207;BME280;593;53.184;8.216;2023-11-18T06:26:16;101962.28;;;6.45;100.00
1207;BME280;593;53.184;8.216;2023-11-18T06:28:42;101955.66;;;6.41;100.00
1207;BME280;593;53.184;8.216;2023-11-18T06:31:09;101974.97;;;6.45;100.00
1207;BME280;593;53.184;8.216;2023-11-18T06:33:42;101964.97;;;6.45;100.00
1207;BME280;593;53.184;8.216;2023-11-18T06:36:18;101967.09;;;6.43;100.00
1207;BME280;593;53.184;8.216;2023-11-18T06:38:47;101965.19;;;6.44;100.00
1207;BME280;593;53.184;8.216;2023-11-18T06:41:15;101967.88;;;6.44;100.00
1207;BME280;593;53.184;8.216;2023-11-18T06:43:42;101971.44;;;6.44;100.00
1207;BME280;593;53.184;8.216;2023-11-18T06:46:24;101965.41;;;6.42;100.00
1207;BME280;593;53.184;8.216;2023-11-18T06:48:50;101968.13;;;6.42;100.00
1207;BME280;593;53.184;8.216;2023-11-18T06:51:22;101964.59;;;6.42;100.00
1207;BME280;593;53.184;8.216;2023-11-18T06:53:54;101954.63;;;6.42;100.00
1207;BME280;593;53.184;8.216;2023-11-18T06:56:27;101954.63;;;6.42;100.00
1207;BME280;593;53.184;8.216;2023-11-18T06:58:53;101960.03;;;6.42;100.00
1207;BME280;593;53.184;8.216;2023-11-18T07:01:18;101960.03;;;6.42;100.00
1207;BME280;593;53.184;8.216;2023-11-18T07:03:45;101960.03;;;6.42;100.00
1207;BME280;593;53.184;8.216;2023-11-18T07:06:16;101962.13;;;6.40;100.00
1207;BME280;593;53.184;8.216;2023-11-18T07:08:50;101962.97;;;6.41;100.00
1207;BME280;593;53.184;8.216;2023-11-18T07:11:16;101961.88;;;6.42;100.00
1207;BME280;593;53.184;8.216;2023-11-18T07:13:43;101961.06;;;6.41;100.00
1207;BME280;593;53.184;8.216;2023-11-18T07:16:08;101954.03;;;6.40;100.00
1207;BME280;593;53.184;8.216;2023-11-18T07:18:40;101960.69;;;6.38;100.00
1207;BME280;593;53.184;8.216;2023-11-18T07:21:07;101961.53;;;6.38;100.00
1207;BME280;593;53.184;8.216;2023-11-18T07:23:35;101957.16;;;6.37;100.00
1207;BME280;593;53.184;8.216;2023-11-18T07:26:00;101960.09;;;6.36;100.00
1207;BME280;593;53.184;8.216;2023-11-18T07:28:27;101954.31;;;6.32;100.00
1207;BME280;593;53.184;8.216;2023-11-18T07:30:52;101965.25;;;6.37;100.00
1207;BME280;593;53.184;8.216;2023-11-18T07:33:19;101964.22;;;6.38;100.00
1207;BME280;593;53.184;8.216;2023-11-18T07:35:45;101960.69;;;6.38;100.00
1207;BME280;593;53.184;8.216;2023-11-18T07:38:12;101960.09;;;6.36;100.00
1207;BME280;593;53.184;8.216;2023-11-18T07:40:37;101967.97;;;6.37;100.00
1207;BME280;593;53.184;8.216;2023-11-18T07:43:10;101964.22;;;6.38;100.00
1207;BME280;593;53.184;8.216;2023-11-18T07:45:36;101956.13;;;6.38;100.00
1207;BME280;593;53.184;8.216;2023-11-18T07:48:06;101963.16;;;6.39;100.00
1207;BME280;593;53.184;8.216;2023-11-18T07:50:35;101952.34;;;6.39;100.00
1207;BME280;593;53.184;8.216;2023-11-18T07:53:01;101959.44;;;6.40;100.00
1207;BME280;593;53.184;8.216;2023-11-18T07:55:27;101952.34;;;6.39;100.00
1207;BME280;593;53.184;8.216;2023-11-18T07:57:53;101948.03;;;6.38;100.00
1207;BME280;593;53.184;8.216;2023-11-18T08:00:19;101946.75;;;6.41;100.00
1207;BME280;593;53.184;8.216;2023-11-18T08:02:44;101943.81;;;6.42;100.00
1207;BME280;593;53.184;8.216;2023-11-18T08:05:10;101940.28;;;6.42;100.00
1207;BME280;593;53.184;8.216;2023-11-18T08:07:44;101940.28;;;6.42;100.00
1207;BME280;593;53.184;8.216;2023-11-18T08:10:10;101931.97;;;6.43;100.00
1207;BME280;593;53.184;8.216;2023-11-18T08:12:39;101940.28;;;6.42;100.00
1207;BME280;593;53.184;8.216;2023-11-18T08:15:06;101937.81;;;6.40;100.00
1207;BME280;593;53.184;8.216;2023-11-18T08:17:35;101942.53;;;6.45;100.00
1207;BME280;593;53.184;8.216;2023-11-18T08:20:00;101935.25;;;6.45;100.00
1207;BME280;593;53.184;8.216;2023-11-18T08:22:26;101933.59;;;6.44;100.00
1207;BME280;593;53.184;8.216;2023-11-18T08:24:51;101941.50;;;6.46;100.00
1207;BME280;593;53.184;8.216;2023-11-18T08:27:17;101940.50;;;6.40;100.00
1207;BME280;593;53.184;8.216;2023-11-18T08:29:43;101939.38;;;6.48;100.00
1207;BME280;593;53.184;8.216;2023-11-18T08:32:08;101940.00;;;6.50;100.00
1207;BME280;593;53.184;8.216;2023-11-18T08:34:37;101930.84;;;6.51;100.00
1207;BME280;593;53.184;8.216;2023-11-18T08:37:04;101932.47;;;6.52;100.00
1207;BME280;593;53.184;8.216;2023-11-18T08:39:29;101927.91;;;6.53;100.00
1207;BME280;593;53.184;8.216;2023-11-18T08:41:56;101925.19;;;6.53;100.00
1207;BME280;593;53.184;8.216;2023-11-18T08:44:21;101926.88;;;6.54;100.00
1207;BME280;593;53.184;8.216;2023-11-18T08:46:48;101926.88;;;6.54;100.00
1207;BME280;593;53.184;8.216;2023-11-18T08:49:13;101919.56;;;6.54;100.00
1207;BME280;593;53.184;8.216;2023-11-18T08:51:41;101902.06;;;6.57;100.00
1207;BME280;593;53.184;8.216;2023-11-18T08:54:11;101901.25;;;6.56;100.00
1207;BME280;593;53.184;8.216;2023-11-18T08:56:53;101899.38;;;6.57;100.00
1207;BME280;593;53.184;8.216;2023-11-18T08:59:20;101891.06;;;6.58;100.00
1207;BME280;593;53.184;8.216;2023-11-18T09:01:51;101887.50;;;6.58;100.00
1207;BME280;593;53.184;8.216;2023-11-18T09:04:23;101892.09;;;6.57;100.00
1207;BME280;593;53.184;8.216;2023-11-18T09:06:49;101885.84;;;6.57;100.00
1207;BME280;593;53.184;8.216;2023-11-18T09:09:19;101882.94;;;6.58;100.00
1207;BME280;593;53.184;8.216;2023-11-18T09:11:52;101882.69;;;6.60;100.00
1207;BME280;593;53.184;8.216;2023-11-18T09:14:18;101875.66;;;6.59;100.00
1207;BME280;593;53.184;8.216;2023-11-18T09:16:44;101875.66;;;6.59;100.00
1207;BME280;593;53.184;8.216;2023-11-18T09:19:10;101872.72;;;6.60;100.00
1207;BME280;593;53.184;8.216;2023-11-18T09:21:36;101876.63;;;6.64;100.00
1207;BME280;593;53.184;8.216;2023-11-18T09:24:01;101886.38;;;6.65;100.00
1207;BME280;593;53.184;8.216;2023-11-18T09:26:31;101890.50;;;6.68;100.00
1207;BME280;593;53.184;8.216;2023-11-18T09:28:56;101885.94;;;6.68;100.00
1207;BME280;593;53.184;8.216;2023-11-18T09:31:24;101887.22;;;6.66;100.00
1207;BME280;593;53.184;8.216;2023-11-18T09:33:52;101887.38;;;6.71;100.00
1207;BME280;593;53.184;8.216;2023-11-18T09:36:19;101879.00;;;6.72;100.00
1207;BME280;593;53.184;8.216;2023-11-18T09:38:45;101860.91;;;6.73;100.00
1207;BME280;593;53.184;8.216;2023-11-18T09:41:15;101861.50;;;6.75;100.00
1207;BME280;593;53.184;8.216;2023-11-18T09:43:44;101856.34;;;6.73;100.00
1207;BME280;593;53.184;8.216;2023-11-18T09:46:14;101836.97;;;6.76;100.00
1207;BME280;593;53.184;8.216;2023-11-18T09:48:52;101834.03;;;6.78;100.00
1207;BME280;593;53.184;8.216;2023-11-18T09:51:22;101831.09;;;6.79;100.00
1207;BME280;593;53.184;8.216;2023-11-18T09:53:53;101839.81;;;6.81;100.00
1207;BME280;593;53.184;8.216;2023-11-18T09:56:28;101839.34;;;6.84;100.00
1207;BME280;593;53.184;8.216;2023-11-18T09:59:31;101842.66;;;6.86;100.00
1207;BME280;593;53.184;8.216;2023-11-18T10:02:01;101835.34;;;6.87;100.00
1207;BME280;593;53.184;8.216;2023-11-18T10:04:28;101838.53;;;6.84;100.00
1207;BME280;593;53.184;8.216;2023-11-18T10:06:54;101840.53;;;6.88;100.00
1207;BME280;593;53.184;8.216;2023-11-18T10:09:20;101829.03;;;6.93;100.00
1207;BME280;593;53.184;8.216;2023-11-18T10:11:54;101830.06;;;6.92;100.00
1207;BME280;593;53.184;8.216;2023-11-18T10:14:31;101822.56;;;6.94;100.00
1207;BME280;593;53.184;8.216;2023-11-18T10:16:56;101825.88;;;6.96;100.00
1207;BME280;593;53.184;8.216;2023-11-18T10:19:22;101817.28;;;6.99;100.00
1207;BME280;593;53.184;8.216;2023-11-18T10:21:51;101827.88;;;7.00;100.00
1207;BME280;593;53.184;8.216;2023-11-18T10:24:22;101819.53;;;7.02;100.00
1207;BME280;593;53.184;8.216;2023-11-18T10:26:55;101810.59;;;7.01;100.00
1207;BME280;593;53.184;8.216;2023-11-18T10:29:24;101817.78;;;7.07;100.00
1207;BME280;593;53.184;8.216;2023-11-18T10:32:05;101809.44;;;7.09;100.00
1207;BME280;593;53.184;8.216;2023-11-18T10:34:35;101793.44;;;7.07;100.00
1207;BME280;593;53.184;8.216;2023-11-18T10:37:02;101792.16;;;7.10;100.00
1207;BME280;593;53.184;8.216;2023-11-18T10:39:32;101790.03;;;7.12;100.00
1207;BME280;593;53.184;8.216;2023-11-18T10:42:01;101796.03;;;7.14;100.00
1207;BME280;593;53.184;8.216;2023-11-18T10:44:27;101786.06;;;7.15;100.00
1207;BME280;593;53.184;8.216;2023-11-18T10:46:54;101793.47;;;7.19;100.00
1207;BME280;593;53.184;8.216;2023-11-18T10:49:26;101771.59;;;7.21;100.00
1207;BME280;593;53.184;8.216;2023-11-18T10:51:52;101776.78;;;7.22;100.00
1207;BME280;593;53.184;8.216;2023-11-18T10:54:21;101776.56;;;7.24;100.00
1207;BME280;593;53.184;8.216;2023-11-18T10:56:49;101774.44;;;7.26;100.00
1207;BME280;593;53.184;8.216;2023-11-18T10:59:15;101767.38;;;7.25;100.00
1207;BME280;593;53.184;8.216;2023-11-18T11:01:44;101758.19;;;7.26;100.00
1207;BME280;593;53.184;8.216;2023-11-18T11:04:13;101752.09;;;7.30;100.00
1207;BME280;593;53.184;8.216;2023-11-18T11:06:43;101743.38;;;7.28;100.00
1207;BME280;593;53.184;8.216;2023-11-18T11:09:11;101746.44;;;7.32;100.00
1207;BME280;593;53.184;8.216;2023-11-18T11:11:53;101740.56;;;7.35;100.00
1207;BME280;593;53.184;8.216;2023-11-18T11:14:21;101739.25;;;7.37;100.00
1207;BME280;593;53.184;8.216;2023-11-18T11:16:59;101739.25;;;7.37;100.00
1207;BME280;593;53.184;8.216;2023-11-18T11:19:46;101720.09;;;7.39;100.00
1207;BME280;593;53.184;8.216;2023-11-18T11:22:18;101723.16;;;7.42;100.00
1207;BME280;593;53.184;8.216;2023-11-18T11:24:58;101703.38;;;7.42;100.00
1207;BME280;593;53.184;8.216;2023-11-18T11:27:41;101707.28;;;7.46;100.00
1207;BME280;593;53.184;8.216;2023-11-18T11:30:22;101707.84;;;7.48;100.00
1207;BME280;593;53.184;8.216;2023-11-18T11:32:52;101695.97;;;7.49;100.00
1207;BME280;593;53.184;8.216;2023-11-18T11:35:22;101686.78;;;7.50;100.00
1207;BME280;593;53.184;8.216;2023-11-18T11:37:48;101676.78;;;7.50;100.00
1207;BME280;593;53.184;8.216;2023-11-18T11:40:15;101671.72;;;7.54;100.00
1207;BME280;593;53.184;8.216;2023-11-18T11:42:50;101675.03;;;7.56;100.00
1207;BME280;593;53.184;8.216;2023-11-18T11:45:22;101682.88;;;7.57;100.00
1207;BME280;593;53.184;8.216;2023-11-18T11:47:51;101684.28;;;7.60;100.00
1207;BME280;593;53.184;8.216;2023-11-18T11:50:22;101669.47;;;7.62;100.00
1207;BME280;593;53.184;8.216;2023-11-18T11:53:07;101674.88;;;7.62;100.00
1207;BME280;593;53.184;8.216;2023-11-18T11:55:53;101670.03;;;7.64;100.00
1207;BME280;593;53.184;8.216;2023-11-18T12:00:52;101653.22;;;7.62;100.00
1207;BME280;593;53.184;8.216;2023-11-18T12:03:21;101667.34;;;7.64;100.00
1207;BME280;593;53.184;8.216;2023-11-18T12:05:49;101666.28;;;7.65;100.00
1207;BME280;593;53.184;8.216;2023-11-18T12:08:17;101675.56;;;7.69;100.00
1207;BME280;593;53.184;8.216;2023-11-18T12:10:51;101665.34;;;7.71;100.00
1207;BME280;593;53.184;8.216;2023-11-18T12:13:18;101662.38;;;7.73;100.00
1207;BME280;593;53.184;8.216;2023-11-18T12:18:13;101673.22;;;7.73;100.00
1207;BME280;593;53.184;8.216;2023-11-18T12:20:45;101653.09;;;7.69;100.00
1207;BME280;593;53.184;8.216;2023-11-18T12:23:19;101649.69;;;7.73;100.00
1207;BME280;593;53.184;8.216;2023-11-18T12:25:48;101651.31;;;7.74;100.00
1207;BME280;593;53.184;8.216;2023-11-18T12:28:20;101663.78;;;7.75;100.00
1207;BME280;593;53.184;8.216;2023-11-18T12:30:47;101654.50;;;7.71;100.00
1207;BME280;593;53.184;8.216;2023-11-18T12:33:22;101672.50;;;7.78;100.00
1207;BME280;593;53.184;8.216;2023-11-18T12:41:38;101659.53;;;7.80;100.00
1207;BME280;593;53.184;8.216;2023-11-18T12:44:15;101651.41;;;7.80;100.00
1207;BME280;593;53.184;8.216;2023-11-18T12:46:50;101635.16;;;7.80;100.00
1207;BME280;593;53.184;8.216;2023-11-18T12:49:19;101641.16;;;7.82;100.00
1207;BME280;593;53.184;8.216;2023-11-18T12:51:49;101638.44;;;7.82;100.00
1207;BME280;593;53.184;8.216;2023-11-18T12:54:15;101628.44;;;7.82;100.00
1207;BME280;593;53.184;8.216;2023-11-18T12:56:41;101623.59;;;7.84;100.00
1207;BME280;593;53.184;8.216;2023-11-18T12:59:15;101611.97;;;7.84;100.00
1207;BME280;593;53.184;8.216;2023-11-18T13:01:43;101605.94;;;7.82;100.00
1207;BME280;593;53.184;8.216;2023-11-18T13:04:16;101598.06;;;7.80;100.00
1207;BME280;593;53.184;8.216;2023-11-18T13:06:41;101574.50;;;7.64;100.00
1207;BME280;593;53.184;8.216;2023-11-18T13:09:08;101596.19;;;7.81;100.00
1207;BME280;593;53.184;8.216;2023-11-18T13:11:35;101589.13;;;7.80;100.00
1207;BME280;593;53.184;8.216;2023-11-18T13:14:04;101575.38;;;7.81;100.00
1207;BME280;593;53.184;8.216;2023-11-18T13:16:29;101565.00;;;7.78;100.00
1207;BME280;593;53.184;8.216;2023-11-18T13:18:55;101542.50;;;7.78;100.00
1207;BME280;593;53.184;8.216;2023-11-18T13:21:21;101542.25;;;7.79;100.00
1207;BME280;593;53.184;8.216;2023-11-18T13:23:48;101556.88;;;7.78;100.00
1207;BME280;593;53.184;8.216;2023-11-18T13:26:16;101540.88;;;7.76;100.00
1207;BME280;593;53.184;8.216;2023-11-18T13:28:41;101545.69;;;7.74;100.00
1207;BME280;593;53.184;8.216;2023-11-18T13:31:09;101538.16;;;7.76;100.00
1207;BME280;593;53.184;8.216;2023-11-18T13:33:41;101535.22;;;7.78;100.00
1207;BME280;593;53.184;8.216;2023-11-18T13:36:07;101520.75;;;7.72;100.00
1207;BME280;593;53.184;8.216;2023-11-18T13:38:38;101538.97;;;7.77;100.00
1207;BME280;593;53.184;8.216;2023-11-18T13:41:04;101522.72;;;7.77;100.00